createdAt,value
2018-07-30T00:02:02.313Z,2.92
2018-07-30T00:04:30.556Z,2.65
2018-07-30T00:06:58.757Z,2.22
2018-07-30T00:09:26.966Z,2.60
2018-07-30T00:11:55.130Z,2.65
2018-07-30T00:14:23.319Z,2.50
2018-07-30T00:16:51.511Z,2.55
2018-07-30T00:19:19.715Z,2.30
2018-07-30T00:21:48.109Z,2.42
2018-07-30T00:24:16.597Z,2.17
2018-07-30T00:26:44.761Z,2.40
2018-07-30T00:29:12.958Z,3.02
2018-07-30T00:31:41.191Z,2.52
2018-07-30T00:34:09.343Z,2.92
2018-07-30T00:36:37.603Z,2.75
2018-07-30T00:39:09.519Z,2.60
2018-07-30T00:41:37.737Z,2.50
2018-07-30T00:44:06.114Z,2.67
2018-07-30T00:46:34.347Z,2.30
2018-07-30T00:49:02.718Z,2.55
2018-07-30T00:51:30.968Z,2.30
2018-07-30T00:53:59.213Z,3.10
2018-07-30T00:56:27.439Z,2.12
2018-07-30T00:58:55.635Z,2.80
2018-07-30T01:01:23.903Z,2.55
2018-07-30T01:03:52.188Z,2.70
2018-07-30T01:06:20.431Z,2.33
2018-07-30T01:08:48.704Z,2.27
2018-07-30T01:11:16.865Z,2.70
2018-07-30T01:13:45.152Z,2.40
2018-07-30T01:16:13.360Z,2.42
2018-07-30T01:18:41.547Z,2.40
2018-07-30T01:21:09.894Z,2.45
2018-07-30T01:23:38.612Z,2.75
2018-07-30T01:26:12.280Z,2.30
2018-07-30T01:28:40.721Z,2.60
2018-07-30T01:31:08.898Z,2.58
2018-07-30T01:33:37.285Z,2.72
2018-07-30T01:36:06.459Z,3.08
2018-07-30T01:38:34.642Z,2.58
2018-07-30T01:41:02.836Z,2.62
2018-07-30T01:43:32.884Z,3.37
2018-07-30T01:46:01.209Z,2.83
2018-07-30T01:48:29.634Z,3.17
2018-07-30T01:50:57.810Z,2.58
2018-07-30T01:53:26.049Z,2.60
2018-07-30T01:55:54.449Z,2.70
2018-07-30T01:58:22.598Z,2.50
2018-07-30T02:00:50.875Z,3.30
2018-07-30T02:03:19.040Z,3.20
2018-07-30T02:05:47.217Z,2.55
2018-07-30T02:08:15.344Z,2.65
2018-07-30T02:10:43.614Z,2.75
2018-07-30T02:13:11.838Z,2.58
2018-07-30T02:15:40.085Z,2.67
2018-07-30T02:18:08.323Z,3.15
2018-07-30T02:20:38.546Z,2.90
2018-07-30T02:23:06.757Z,2.50
2018-07-30T02:25:35.012Z,2.80
2018-07-30T02:28:14.684Z,3.20
2018-07-30T02:30:43.590Z,2.65
2018-07-30T02:33:11.755Z,2.47
2018-07-30T02:35:39.974Z,3.00
2018-07-30T02:38:08.181Z,2.77
2018-07-30T02:40:36.336Z,3.10
2018-07-30T02:43:05.168Z,2.95
2018-07-30T02:45:33.369Z,3.00
2018-07-30T02:48:02.755Z,2.83
2018-07-30T02:50:30.977Z,3.05
2018-07-30T02:52:59.459Z,3.17
2018-07-30T02:55:28.266Z,2.62
2018-07-30T02:57:56.520Z,3.17
2018-07-30T03:00:24.722Z,3.00
2018-07-30T03:02:52.905Z,2.87
2018-07-30T03:05:21.620Z,3.58
2018-07-30T03:07:49.810Z,3.00
2018-07-30T03:10:18.069Z,3.20
2018-07-30T03:12:46.293Z,3.45
2018-07-30T03:15:14.544Z,2.55
2018-07-30T03:17:42.764Z,3.27
2018-07-30T03:20:11.109Z,2.95
2018-07-30T03:22:39.340Z,3.17
2018-07-30T03:25:07.959Z,3.15
2018-07-30T03:27:36.974Z,3.17
2018-07-30T03:30:07.255Z,3.15
2018-07-30T03:32:35.564Z,2.77
2018-07-30T03:35:03.766Z,3.20
2018-07-30T03:37:31.916Z,2.70
2018-07-30T03:40:00.167Z,2.67
2018-07-30T03:42:28.426Z,3.25
2018-07-30T03:44:56.608Z,3.67
2018-07-30T03:47:24.817Z,3.10
2018-07-30T03:49:53.044Z,2.98
2018-07-30T03:52:21.241Z,3.20
2018-07-30T03:54:50.096Z,2.95
2018-07-30T03:57:19.284Z,3.50
2018-07-30T03:59:47.468Z,3.05
2018-07-30T04:02:15.675Z,3.25
2018-07-30T04:04:44.005Z,2.98
2018-07-30T04:07:12.321Z,3.02
2018-07-30T04:09:40.480Z,3.83
2018-07-30T04:12:08.697Z,2.75
2018-07-30T04:14:36.875Z,3.05
2018-07-30T04:17:05.046Z,3.10
2018-07-30T04:19:33.541Z,3.10
2018-07-30T04:22:01.751Z,2.65
2018-07-30T04:24:30.005Z,3.25
2018-07-30T04:26:58.201Z,3.17
2018-07-30T04:29:26.384Z,2.95
2018-07-30T04:31:55.588Z,3.12
2018-07-30T04:34:23.878Z,2.92
2018-07-30T04:36:52.077Z,2.70
2018-07-30T04:39:20.247Z,3.33
2018-07-30T04:41:49.462Z,3.02
2018-07-30T04:44:17.649Z,2.85
2018-07-30T04:46:45.824Z,2.75
2018-07-30T04:49:14.643Z,3.15
2018-07-30T04:51:42.943Z,3.10
2018-07-30T04:54:11.268Z,2.87
2018-07-30T04:56:40.330Z,2.90
2018-07-30T04:59:08.506Z,2.67
2018-07-30T05:01:36.687Z,2.65
2018-07-30T05:04:04.898Z,3.02
2018-07-30T05:06:33.046Z,2.65
2018-07-30T05:09:01.216Z,2.87
2018-07-30T05:11:30.643Z,3.30
2018-07-30T05:13:58.790Z,2.98
2018-07-30T05:16:26.957Z,2.67
2018-07-30T05:18:55.889Z,2.60
2018-07-30T05:22:15.121Z,2.75
2018-07-30T05:24:43.417Z,3.25
2018-07-30T05:27:11.687Z,2.58
2018-07-30T05:29:40.497Z,2.70
2018-07-30T05:39:16.196Z,2.52
2018-07-30T05:41:44.370Z,2.45
2018-07-30T05:44:12.533Z,2.72
2018-07-30T05:46:41.432Z,2.35
2018-07-30T05:49:09.615Z,3.00
2018-07-30T05:51:37.780Z,3.00
2018-07-30T05:54:06.029Z,2.80
2018-07-30T05:56:34.183Z,3.10
2018-07-30T05:59:02.330Z,2.87
2018-07-30T06:01:30.574Z,3.05
2018-07-30T06:03:58.723Z,2.60
2018-07-30T06:06:26.907Z,2.70
2018-07-30T06:08:55.111Z,2.70
2018-07-30T06:11:23.317Z,3.00
2018-07-30T06:13:51.536Z,2.80
2018-07-30T06:16:19.711Z,2.75
2018-07-30T06:18:47.905Z,3.08
2018-07-30T06:21:16.139Z,3.05
2018-07-30T06:23:44.301Z,2.87
2018-07-30T06:26:12.593Z,2.98
2018-07-30T06:28:40.826Z,2.98
2018-07-30T06:31:08.990Z,3.05
2018-07-30T06:33:37.140Z,2.70
2018-07-30T06:36:07.886Z,3.20
2018-07-30T06:38:44.673Z,3.37
2018-07-30T06:41:16.940Z,3.10
2018-07-30T06:43:45.125Z,3.40
2018-07-30T06:46:13.281Z,2.90
2018-07-30T06:48:41.539Z,3.50
2018-07-30T06:51:09.712Z,3.35
2018-07-30T06:53:37.976Z,3.17
2018-07-30T06:56:06.261Z,3.10
2018-07-30T06:58:34.554Z,3.10
2018-07-30T07:01:02.711Z,2.80
2018-07-30T07:03:30.888Z,2.70
2018-07-30T07:05:59.083Z,2.77
2018-07-30T07:08:27.293Z,2.77
2018-07-30T07:10:55.651Z,2.83
2018-07-30T07:13:23.832Z,2.80
2018-07-30T07:15:52.008Z,2.80
2018-07-30T07:18:20.308Z,3.10
2018-07-30T07:20:48.558Z,3.10
2018-07-30T07:23:16.690Z,2.70
2018-07-30T07:25:44.961Z,2.72
2018-07-30T07:28:13.275Z,3.37
2018-07-30T07:30:41.527Z,2.85
2018-07-30T07:33:09.719Z,2.98
2018-07-30T07:35:39.178Z,2.58
2018-07-30T07:38:12.163Z,2.95
2018-07-30T07:40:40.429Z,2.52
2018-07-30T07:43:08.746Z,2.70
2018-07-30T07:45:36.987Z,2.50
2018-07-30T07:48:06.785Z,2.17
2018-07-30T07:50:35.967Z,2.02
2018-07-30T07:53:04.778Z,2.02
2018-07-30T07:55:33.811Z,2.17
2018-07-30T07:58:02.669Z,2.20
2018-07-30T08:00:31.549Z,2.37
2018-07-30T08:03:00.458Z,1.70
2018-07-30T08:05:29.281Z,2.02
2018-07-30T08:07:58.157Z,1.50
2018-07-30T08:10:27.081Z,2.95
2018-07-30T08:12:55.957Z,2.20
2018-07-30T08:15:24.990Z,2.30
2018-07-30T08:17:53.860Z,1.90
2018-07-30T08:20:22.705Z,2.47
2018-07-30T08:22:51.943Z,1.90
2018-07-30T08:25:20.822Z,1.92
2018-07-30T08:27:49.739Z,2.17
2018-07-30T08:30:18.661Z,2.10
2018-07-30T08:32:47.874Z,2.17
2018-07-30T08:35:16.794Z,2.22
2018-07-30T08:37:51.713Z,1.90
2018-07-30T08:40:22.169Z,2.02
2018-07-30T08:42:54.725Z,2.33
2018-07-30T08:45:24.368Z,2.10
2018-07-30T08:47:53.356Z,2.02
2018-07-30T08:50:23.001Z,1.57
2018-07-30T08:52:51.924Z,2.60
2018-07-30T08:55:20.890Z,1.75
2018-07-30T08:57:52.385Z,1.90
2018-07-30T09:00:21.968Z,2.00
2018-07-30T09:02:50.813Z,2.02
2018-07-30T09:05:20.088Z,1.90
2018-07-30T09:07:51.662Z,1.70
2018-07-30T09:10:21.701Z,1.80
2018-07-30T09:12:50.715Z,1.70
2018-07-30T09:15:19.631Z,1.87
2018-07-30T09:17:48.713Z,1.77
2018-07-30T09:20:17.637Z,2.00
2018-07-30T09:22:46.532Z,1.80
2018-07-30T09:25:15.994Z,2.08
2018-07-30T09:27:44.940Z,1.90
2018-07-30T09:30:13.909Z,1.72
2018-07-30T09:32:42.768Z,1.50
2018-07-30T09:35:11.648Z,1.92
2018-07-30T09:37:40.597Z,1.87
2018-07-30T09:40:09.433Z,1.70
2018-07-30T09:42:38.516Z,1.80
2018-07-30T09:45:07.380Z,1.70
2018-07-30T09:47:36.234Z,1.85
2018-07-30T09:50:07.636Z,2.12
2018-07-30T09:52:36.882Z,1.90
2018-07-30T09:55:05.853Z,1.70
2018-07-30T09:57:34.810Z,1.87
2018-07-30T10:00:05.701Z,1.70
2018-07-30T10:02:38.313Z,1.60
2018-07-30T10:05:07.167Z,1.80
2018-07-30T10:07:36.181Z,1.70
2018-07-30T10:10:06.375Z,1.72
2018-07-30T10:12:37.897Z,1.67
2018-07-30T10:15:07.451Z,1.98
2018-07-30T10:17:36.290Z,2.25
2018-07-30T10:20:06.356Z,1.32
2018-07-30T10:22:37.027Z,1.60
2018-07-30T10:25:07.295Z,2.10
2018-07-30T10:27:36.136Z,1.45
2018-07-30T10:30:05.757Z,1.55
2018-07-30T10:32:37.376Z,1.80
2018-07-30T10:35:07.142Z,1.80
2018-07-30T10:37:38.370Z,1.62
2018-07-30T10:40:08.228Z,1.60
2018-07-30T10:42:37.081Z,1.80
2018-07-30T10:45:05.949Z,1.50
2018-07-30T10:47:34.845Z,2.02
2018-07-30T10:50:04.148Z,2.15
2018-07-30T10:52:33.066Z,1.72
2018-07-30T10:55:01.884Z,1.70
2018-07-30T10:57:30.846Z,1.92
2018-07-30T10:59:59.783Z,1.62
2018-07-30T11:02:28.670Z,1.52
2018-07-30T11:04:57.660Z,1.70
2018-07-30T11:07:26.553Z,1.20
2018-07-30T11:09:57.088Z,1.65
2018-07-30T11:12:27.331Z,1.55
2018-07-30T11:14:56.270Z,1.72
2018-07-30T11:17:25.011Z,1.52
2018-07-30T11:19:53.928Z,1.47
2018-07-30T11:22:22.761Z,1.60
2018-07-30T11:24:51.612Z,1.82
2018-07-30T11:27:20.512Z,2.10
2018-07-30T11:29:49.361Z,1.40
2018-07-30T11:32:18.224Z,1.55
2018-07-30T11:34:47.145Z,1.80
2018-07-30T11:37:16.217Z,1.65
2018-07-30T11:39:45.163Z,1.57
2018-07-30T11:42:14.789Z,1.60
2018-07-30T11:44:43.685Z,1.65
2018-07-30T11:47:12.552Z,1.52
2018-07-30T11:49:41.436Z,1.60
2018-07-30T11:52:10.339Z,2.10
2018-07-30T11:54:39.229Z,1.90
2018-07-30T11:57:23.460Z,2.08
2018-07-30T12:00:02.898Z,1.82
2018-07-30T12:02:34.747Z,1.85
2018-07-30T12:05:09.741Z,1.72
2018-07-30T12:07:51.332Z,1.57
2018-07-30T12:10:24.848Z,1.62
2018-07-30T12:12:53.937Z,1.60
2018-07-30T12:15:23.321Z,1.77
2018-07-30T12:17:52.193Z,1.90
2018-07-30T12:20:21.555Z,1.70
2018-07-30T12:22:50.417Z,1.50
2018-07-30T12:25:19.309Z,1.62
2018-07-30T12:27:48.205Z,1.60
2018-07-30T12:30:17.152Z,1.85
2018-07-30T12:32:49.076Z,1.70
2018-07-30T12:35:17.935Z,1.80
2018-07-30T12:37:46.849Z,1.70
2018-07-30T12:40:16.657Z,1.77
2018-07-30T12:42:45.535Z,1.95
2018-07-30T12:45:14.420Z,1.67
2018-07-30T12:47:43.278Z,1.50
2018-07-30T12:50:12.166Z,1.75
2018-07-30T12:52:40.989Z,1.57
2018-07-30T12:55:09.872Z,1.72
2018-07-30T12:57:39.700Z,1.87
2018-07-30T13:00:08.571Z,1.50
2018-07-30T13:02:37.491Z,1.62
2018-07-30T13:05:06.450Z,1.65
2018-07-30T13:07:35.282Z,1.77
2018-07-30T13:10:04.203Z,1.85
2018-07-30T13:12:33.119Z,1.70
2018-07-30T13:15:01.971Z,1.50
2018-07-30T13:17:30.885Z,1.90
2018-07-30T13:19:59.908Z,1.75
2018-07-30T13:22:29.063Z,2.00
2018-07-30T13:24:58.614Z,1.77
2018-07-30T13:27:27.717Z,1.60
2018-07-30T13:29:56.790Z,1.70
2018-07-30T13:32:25.721Z,1.70
2018-07-30T13:34:54.799Z,1.77
2018-07-30T13:37:23.641Z,1.60
2018-07-30T13:39:53.349Z,1.67
2018-07-30T13:42:22.181Z,1.77
2018-07-30T13:44:51.150Z,1.57
2018-07-30T13:47:20.104Z,1.65
2018-07-30T13:49:48.996Z,1.57
2018-07-30T13:52:17.915Z,1.72
2018-07-30T13:54:46.823Z,1.50
2018-07-30T13:57:15.671Z,1.55
2018-07-30T13:59:44.562Z,1.60
2018-07-30T14:02:13.436Z,1.82
2018-07-30T14:04:42.300Z,1.40
2018-07-30T14:07:11.296Z,1.80
2018-07-30T14:09:40.162Z,2.02
2018-07-30T14:12:09.003Z,1.70
2018-07-30T14:14:37.958Z,1.52
2018-07-30T14:17:06.784Z,1.90
2018-07-30T14:19:35.677Z,1.32
2018-07-30T14:22:04.649Z,2.35
2018-07-30T14:24:33.516Z,1.35
2018-07-30T14:27:02.335Z,1.67
2018-07-30T14:29:31.306Z,1.50
2018-07-30T14:32:00.151Z,1.90
2018-07-30T14:34:29.035Z,1.62
2018-07-30T14:36:58.218Z,2.10
2018-07-30T14:39:27.179Z,1.67
2018-07-30T14:41:56.191Z,1.82
2018-07-30T14:44:25.048Z,1.65
2018-07-30T14:46:54.070Z,1.77
2018-07-30T14:49:23.021Z,1.67
2018-07-30T14:51:51.904Z,1.60
2018-07-30T14:54:20.785Z,1.47
2018-07-30T14:56:49.712Z,1.70
2018-07-30T14:59:18.927Z,1.62
2018-07-30T15:01:47.976Z,1.80
2018-07-30T15:04:16.835Z,1.75
2018-07-30T15:06:45.768Z,1.80
2018-07-30T15:09:14.859Z,1.80
2018-07-30T15:11:43.793Z,1.70
2018-07-30T15:14:12.746Z,1.70
2018-07-30T15:16:41.643Z,1.80
2018-07-30T15:19:10.587Z,1.90
2018-07-30T15:21:39.369Z,2.05
2018-07-30T15:24:08.361Z,1.50
2018-07-30T15:26:37.194Z,1.72
2018-07-30T15:29:06.124Z,1.45
2018-07-30T15:31:35.002Z,1.65
2018-07-30T15:34:04.005Z,2.42
2018-07-30T15:36:32.856Z,1.70
2018-07-30T15:39:01.757Z,1.67
2018-07-30T15:41:30.595Z,1.60
2018-07-30T15:43:59.485Z,1.80
2018-07-30T15:46:28.445Z,1.80
2018-07-30T15:48:57.320Z,1.70
2018-07-30T15:51:26.227Z,1.62
2018-07-30T15:53:55.163Z,1.70
2018-07-30T15:56:24.031Z,1.70
2018-07-30T15:58:52.917Z,1.60
2018-07-30T16:01:21.874Z,5.05
2018-07-30T16:03:50.846Z,1.90
2018-07-30T16:06:20.492Z,1.55
2018-07-30T16:08:49.581Z,1.20
2018-07-30T16:11:18.475Z,1.75
2018-07-30T16:13:47.498Z,1.60
2018-07-30T16:16:16.398Z,1.60
2018-07-30T16:18:45.354Z,1.72
2018-07-30T16:21:14.276Z,1.67
2018-07-30T16:23:43.255Z,1.90
2018-07-30T16:26:12.165Z,1.50
2018-07-30T16:28:42.145Z,1.40
2018-07-30T16:31:11.053Z,1.87
2018-07-30T16:33:39.957Z,1.65
2018-07-30T16:36:08.989Z,1.60
2018-07-30T16:38:37.895Z,1.50
2018-07-30T16:41:06.973Z,1.50
2018-07-30T16:43:35.874Z,1.65
2018-07-30T16:46:04.780Z,1.55
2018-07-30T16:48:33.689Z,1.70
2018-07-30T16:51:02.633Z,1.52
2018-07-30T16:53:31.653Z,1.60
2018-07-30T16:56:00.508Z,1.65
2018-07-30T16:58:29.421Z,1.65
2018-07-30T17:00:58.476Z,1.70
2018-07-30T17:03:27.389Z,1.80
2018-07-30T17:05:56.444Z,1.72
2018-07-30T17:08:25.409Z,1.72
2018-07-30T17:10:54.401Z,1.70
2018-07-30T17:13:24.500Z,2.05
2018-07-30T17:15:53.552Z,2.10
2018-07-30T17:18:22.498Z,1.67
2018-07-30T17:20:52.529Z,2.25
2018-07-30T17:23:21.379Z,1.82
2018-07-30T17:25:50.257Z,1.50
2018-07-30T17:28:19.145Z,1.70
2018-07-30T17:30:48.019Z,1.42
2018-07-30T17:33:17.416Z,1.40
2018-07-30T17:35:46.360Z,1.62
2018-07-30T17:38:15.305Z,1.42
2018-07-30T17:40:44.191Z,1.80
2018-07-30T17:43:13.140Z,1.60
2018-07-30T17:45:42.096Z,1.70
2018-07-30T17:48:10.922Z,1.80
2018-07-30T17:50:39.870Z,1.80
2018-07-30T17:53:08.930Z,1.50
2018-07-30T17:55:37.860Z,1.67
2018-07-30T17:58:06.763Z,1.80
2018-07-30T18:00:35.755Z,1.40
2018-07-30T18:03:04.644Z,1.80
2018-07-30T18:05:33.644Z,1.60
2018-07-30T18:08:02.642Z,1.60
2018-07-30T18:10:31.689Z,1.65
2018-07-30T18:13:00.571Z,1.60
2018-07-30T18:15:29.512Z,1.90
2018-07-30T18:17:58.416Z,1.65
2018-07-30T18:20:27.421Z,1.80
2018-07-30T18:22:56.301Z,1.90
2018-07-30T18:25:25.602Z,2.05
2018-07-30T18:27:54.511Z,1.70
2018-07-30T18:30:24.349Z,1.82
2018-07-30T18:32:55.093Z,1.70
2018-07-30T18:35:25.718Z,1.55
2018-07-30T18:37:58.817Z,1.80
2018-07-30T18:40:42.849Z,1.60
2018-07-30T18:43:25.702Z,1.85
2018-07-30T18:45:54.924Z,1.98
2018-07-30T18:48:23.820Z,2.02
2018-07-30T18:50:52.700Z,2.10
2018-07-30T18:53:21.575Z,1.70
2018-07-30T18:55:50.503Z,1.67
2018-07-30T18:58:19.549Z,1.67
2018-07-30T19:00:48.449Z,1.90
2018-07-30T19:03:17.462Z,1.80
2018-07-30T19:05:46.356Z,1.80
2018-07-30T19:08:15.304Z,2.00
2018-07-30T19:10:44.283Z,1.60
2018-07-30T19:13:13.311Z,1.98
2018-07-30T19:15:43.054Z,1.75
2018-07-30T19:18:11.930Z,1.60
2018-07-30T19:20:40.781Z,2.52
2018-07-30T19:23:09.879Z,1.72
2018-07-30T19:25:38.765Z,2.08
2018-07-30T19:28:07.753Z,2.40
2018-07-30T19:30:36.601Z,1.70
2018-07-30T19:33:05.517Z,2.40
2018-07-30T19:35:35.452Z,2.20
2018-07-30T19:38:04.390Z,2.25
2018-07-30T19:40:33.316Z,2.02
2018-07-30T19:43:02.317Z,2.05
2018-07-30T19:45:31.243Z,2.20
2018-07-30T19:48:00.917Z,1.90
2018-07-30T19:50:29.826Z,2.02
2018-07-30T19:52:58.735Z,2.10
2018-07-30T19:55:27.667Z,1.95
2018-07-30T19:57:56.781Z,2.30
2018-07-30T20:00:25.713Z,1.80
2018-07-30T20:02:54.672Z,2.12
2018-07-30T20:05:23.522Z,2.15
2018-07-30T20:07:52.726Z,2.00
2018-07-30T20:10:22.055Z,2.30
2018-07-30T20:12:50.995Z,2.85
2018-07-30T20:15:20.015Z,2.10
2018-07-30T20:17:48.910Z,1.90
2018-07-30T20:20:17.832Z,1.77
2018-07-30T20:22:46.815Z,1.92
2018-07-30T20:25:15.776Z,2.02
2018-07-30T20:27:44.756Z,1.85
2018-07-30T20:30:13.623Z,1.98
2018-07-30T20:32:42.729Z,2.02
2018-07-30T20:35:11.749Z,2.00
2018-07-30T20:37:40.714Z,2.10
2018-07-30T20:40:10.027Z,2.15
2018-07-30T20:42:38.900Z,2.25
2018-07-30T20:45:07.796Z,1.90
2018-07-30T20:47:36.791Z,1.92
2018-07-30T20:50:05.743Z,1.72
2018-07-30T20:52:34.806Z,2.08
2018-07-30T20:55:03.741Z,2.05
2018-07-30T20:57:32.624Z,1.90
2018-07-30T21:00:01.692Z,2.15
2018-07-30T21:02:30.779Z,2.10
2018-07-30T21:04:59.763Z,2.08
2018-07-30T21:07:28.787Z,1.85
2018-07-30T21:09:58.867Z,1.95
2018-07-30T21:12:28.253Z,2.00
2018-07-30T21:14:57.224Z,2.02
2018-07-30T21:17:26.116Z,1.92
2018-07-30T21:19:55.005Z,2.27
2018-07-30T21:22:24.773Z,2.10
2018-07-30T21:24:53.669Z,2.02
2018-07-30T21:27:23.044Z,2.05
2018-07-30T21:29:51.972Z,1.95
2018-07-30T21:32:20.992Z,2.10
2018-07-30T21:34:49.927Z,1.70
2018-07-30T21:37:18.859Z,2.45
2018-07-30T21:39:48.711Z,2.50
2018-07-30T21:42:17.580Z,2.40
2018-07-30T21:44:46.586Z,2.15
2018-07-30T21:47:16.367Z,1.98
2018-07-30T21:49:45.253Z,2.20
2018-07-30T21:52:14.256Z,2.17
2018-07-30T21:54:43.218Z,2.55
2018-07-30T21:57:12.119Z,1.92
2018-07-30T21:59:41.135Z,2.37
2018-07-30T22:02:10.295Z,2.30
2018-07-30T22:04:39.405Z,2.08
2018-07-30T22:07:08.639Z,2.45
2018-07-30T22:12:12.559Z,2.27
2018-07-30T22:14:41.644Z,2.27
2018-07-30T22:17:10.557Z,2.80
2018-07-30T22:19:39.571Z,2.42
2018-07-30T22:22:08.587Z,2.52
2018-07-30T22:24:40.373Z,3.02
2018-07-30T22:27:10.601Z,2.87
2018-07-30T22:29:41.318Z,2.77
2018-07-30T22:32:11.377Z,2.80
2018-07-30T22:34:41.397Z,2.58
2018-07-30T22:37:10.977Z,2.33
2018-07-30T22:39:40.806Z,2.17
2018-07-30T22:42:10.164Z,2.72
2018-07-30T22:44:40.321Z,2.47
2018-07-30T22:47:10.900Z,2.30
2018-07-30T22:49:40.755Z,2.33
2018-07-30T22:52:11.149Z,2.50
2018-07-30T22:54:42.187Z,2.37
2018-07-30T22:57:12.348Z,2.65
2018-07-30T22:59:42.650Z,2.47
2018-07-30T23:04:47.304Z,2.50
2018-07-30T23:07:16.424Z,3.22
2018-07-30T23:09:45.400Z,3.12
2018-07-30T23:12:14.393Z,3.00
2018-07-30T23:14:43.445Z,2.60
2018-07-30T23:17:13.307Z,2.67
2018-07-30T23:19:42.402Z,2.67
2018-07-30T23:22:11.393Z,2.70
2018-07-30T23:24:40.414Z,3.50
2018-07-30T23:27:09.368Z,3.22
2018-07-30T23:29:38.409Z,2.42
2018-07-30T23:32:07.360Z,2.67
2018-07-30T23:34:36.508Z,2.87
2018-07-30T23:37:06.231Z,2.67
2018-07-30T23:39:35.193Z,2.70
2018-07-30T23:42:04.212Z,2.92
2018-07-30T23:44:33.196Z,2.70
2018-07-30T23:47:02.362Z,2.30
2018-07-30T23:49:31.398Z,2.50
2018-07-30T23:52:02.321Z,2.45
2018-07-30T23:54:31.311Z,2.67
2018-07-30T23:57:00.269Z,2.22
2018-07-30T23:59:29.722Z,2.75
